2006/11/5 日曜日

今日、日本へ帰ります。

今、香港のサクララウンジです。

これから、JAL702で日本へ帰ります。残念ながら、帰りはアップグレードはないようですが、CコンパートメントがY解放となるようで、◇敏郎◇にもそこがアサインされました。結局、往復とも座席はスカイラックスということになりそうです。シップはJAL731からの折り返しとなるJA8077の予定です。

台風の影響が心配でしたが、結果的には影響は全く無し、天候には恵まれました。
ちなみに現在はこんな天気です。
VHHH 050500Z 32009KT 4200 HZ FEW040 27/17 Q1013 NOSIG

天気はまずまずだったんですが、飛来機は『うぅ〜ん。』て言う感じです。詳しくは日本に着いてからにします。

Tags: ,

  • 香港からです。
  • デリバリィフライトルート。
  • また1機、B742が日本の空を離れます。
  • 気になるフライト(48)
  • 昨日の羽田。
  • 成田に行って来ました。(25)
  • 気になるフライト(46)
  • 気になるフライト(45)
  • 成田に行って来ました。(24)
  • Filed under: Airport — ◇敏郎◇ @ 14:32:55

    コメント (0) »

    この記事にはまだコメントがついていません。

    コメント RSS トラックバック URL

    コメントをどうぞ

    HTML convert time: 0.230 sec. Powered by WordPress ME